»·PEaware :: QXE2479 KBZN-KSEA

QXE2479 :: KBZN-KSEA

FLIGHT INFORMATION

Flight Status: Arrived
Operator:
Horizon Air
More flights by this operator :: More flights under this callsign
Pilot: Leo L. (42155)
Aircraft: Unknown
(E75L)
More flights by this aircraft type
Origin: KBZN Gallatin
United States
Destination: KSEA Seattle-Tacoma Intl
United States
More flights between these airports :: More routes between these airports
Route: TEERX4 HIA MLP GLASR1
File this flight plan on PilotEdge
Remarks: RMK / SIMBRIEF
Altitude:
(Current/Filed)
34,000ft
Speed:
(Current/Filed)
441kts
Departed: 23-Nov-22 09:09 PM
Arrived: 23-Nov-22 10:42 PM
Distance/Time
Traveled:
470nm/1:33
Distance/Time
To Go:
Arrived

Flight Plot

Page will automatically refresh every two minutes.

Flight plan parsing failed; only flown route is shown


Map Options




Map Legend


Flown Route
Filed Route
Departure Airport
Arrival Airport
Navaid (VOR, NDB)
Fix

Horizontal Profiles

Position Reports

Time Latitude Longitude Heading Altitude Ground
Speed
23-Nov-22 20:47 45.779558 -111.161693 193 4454ft 0kts
23-Nov-22 20:48 45.779558 -111.161693 193 4454ft 0kts
23-Nov-22 20:49 45.779558 -111.161693 193 4454ft 0kts
23-Nov-22 20:50 45.779558 -111.161693 193 4454ft 0kts
23-Nov-22 20:51 45.779558 -111.161693 193 4454ft 0kts
23-Nov-22 20:52 45.779558 -111.161693 193 4454ft 0kts
23-Nov-22 20:53 45.779558 -111.161693 193 4454ft 0kts
23-Nov-22 20:54 45.779558 -111.161693 193 4454ft 0kts
23-Nov-22 20:55 45.779558 -111.161693 193 4454ft 0kts
23-Nov-22 20:56 45.779558 -111.161693 193 4454ft 0kts
23-Nov-22 20:57 45.779558 -111.161693 193 4454ft 0kts
23-Nov-22 20:58 45.779558 -111.161693 193 4454ft 0kts
23-Nov-22 20:59 45.779558 -111.161693 193 4454ft 0kts
23-Nov-22 21:00 45.779558 -111.161693 193 4454ft 0kts
23-Nov-22 21:01 45.779627 -111.161669 193 4454ft 1kts
23-Nov-22 21:02 45.779786 -111.162056 48 4453ft 0kts
23-Nov-22 21:03 45.779787 -111.162055 48 4453ft 0kts
23-Nov-22 21:04 45.779787 -111.162055 48 4453ft 0kts
23-Nov-22 21:05 45.780119 -111.161036 79 4453ft 9kts
23-Nov-22 21:07 45.783882 -111.164806 315 4444ft 31kts
23-Nov-22 21:08 45.787331 -111.167405 46 4434ft 0kts
23-Nov-22 21:09 45.786649 -111.164379 136 4437ft 54kts
23-Nov-22 21:10 45.745515 -111.130151 194 6446ft 250kts
23-Nov-22 21:11 45.701580 -111.208223 260 9494ft 264kts
23-Nov-22 21:12 45.710841 -111.322536 282 12596ft 320kts
23-Nov-22 21:13 45.725193 -111.450336 286 15593ft 330kts
23-Nov-22 21:14 45.739945 -111.581779 289 18359ft 341kts
23-Nov-22 21:15 45.761653 -111.714808 297 21348ft 349kts
23-Nov-22 21:16 45.791879 -111.849731 297 24319ft 366kts
23-Nov-22 21:17 45.822656 -111.990170 298 27291ft 375kts
23-Nov-22 21:18 45.854177 -112.134717 300 30247ft 387kts
23-Nov-22 21:19 45.905661 -112.259710 316 33162ft 359kts
23-Nov-22 21:20 45.963570 -112.378849 315 34437ft 377kts
23-Nov-22 21:21 46.022789 -112.501455 315 34433ft 372kts
23-Nov-22 21:22 46.081556 -112.623565 315 34431ft 371kts
23-Nov-22 21:23 46.140418 -112.746426 314 34479ft 372kts
23-Nov-22 21:24 46.198926 -112.869103 313 34494ft 372kts
23-Nov-22 21:25 46.257305 -112.992002 313 34513ft 372kts
23-Nov-22 21:26 46.315678 -113.115414 313 34506ft 371kts
23-Nov-22 21:27 46.373709 -113.238722 312 34503ft 371kts
23-Nov-22 21:28 46.431726 -113.362471 312 34498ft 370kts
23-Nov-22 21:29 46.489462 -113.486243 312 34500ft 371kts
23-Nov-22 21:30 46.547103 -113.610294 312 34496ft 370kts
23-Nov-22 21:31 46.604592 -113.734610 311 34500ft 371kts
23-Nov-22 21:32 46.662032 -113.859369 311 34504ft 372kts
23-Nov-22 21:32 46.709976 -113.963913 311 34498ft 371kts
23-Nov-22 21:33 46.766968 -114.088721 311 34499ft 371kts
23-Nov-22 21:35 46.833545 -114.235216 310 34503ft 370kts
23-Nov-22 21:36 46.890220 -114.360555 310 34500ft 371kts
23-Nov-22 21:37 46.946837 -114.486295 310 34502ft 371kts
23-Nov-22 21:37 46.994089 -114.591710 310 34499ft 370kts
23-Nov-22 21:38 47.050357 -114.717777 309 34505ft 372kts
23-Nov-22 21:39 47.106583 -114.844295 309 34515ft 370kts
23-Nov-22 21:41 47.171905 -114.992011 308 34512ft 370kts
23-Nov-22 21:42 47.227860 -115.119211 308 34494ft 370kts
23-Nov-22 21:42 47.274267 -115.225143 308 34477ft 369kts
23-Nov-22 21:43 47.329567 -115.351893 308 34480ft 370kts
23-Nov-22 21:44 47.385026 -115.479576 308 34477ft 368kts
23-Nov-22 21:45 47.440122 -115.607079 307 34483ft 369kts
23-Nov-22 21:46 47.463861 -115.758897 284 34498ft 390kts
23-Nov-22 21:47 47.473825 -115.918628 283 34489ft 391kts
23-Nov-22 21:48 47.483399 -116.077845 283 34507ft 389kts
23-Nov-22 21:49 47.492744 -116.236796 283 34525ft 388kts
23-Nov-22 21:50 47.501871 -116.395828 283 34528ft 389kts
23-Nov-22 21:51 47.510805 -116.555448 283 34539ft 390kts
23-Nov-22 21:52 47.519512 -116.715255 282 34543ft 391kts
23-Nov-22 21:53 47.528063 -116.875979 282 34549ft 392kts
23-Nov-22 21:54 47.536353 -117.036349 281 34538ft 392kts
23-Nov-22 21:55 47.544425 -117.196499 281 34527ft 391kts
23-Nov-22 21:56 47.552267 -117.356989 281 34527ft 391kts
23-Nov-22 21:57 47.559900 -117.517418 281 34527ft 391kts
23-Nov-22 21:58 47.569018 -117.676776 285 34559ft 386kts
23-Nov-22 21:59 47.584867 -117.833842 283 34531ft 386kts
23-Nov-22 22:00 47.599786 -117.991579 283 34529ft 386kts
23-Nov-22 22:01 47.614462 -118.149053 283 34518ft 386kts
23-Nov-22 22:02 47.628880 -118.306318 283 34507ft 386kts
23-Nov-22 22:03 47.643175 -118.464555 283 34515ft 387kts
23-Nov-22 22:04 47.657201 -118.622295 283 34514ft 387kts
23-Nov-22 22:05 47.671090 -118.781016 282 34521ft 388kts
23-Nov-22 22:06 47.684734 -118.939600 282 34528ft 388kts
23-Nov-22 22:07 47.698230 -119.098982 281 34536ft 388kts
23-Nov-22 22:08 47.711466 -119.258114 281 34535ft 388kts
23-Nov-22 22:09 47.724463 -119.417116 281 34534ft 388kts
23-Nov-22 22:10 47.737199 -119.575578 281 34532ft 388kts
23-Nov-22 22:11 47.749770 -119.734982 280 34540ft 388kts
23-Nov-22 22:12 47.762113 -119.894274 280 34544ft 388kts
23-Nov-22 22:13 47.774215 -120.053134 279 34075ft 391kts
23-Nov-22 22:14 47.786324 -120.215409 279 32059ft 399kts
23-Nov-22 22:15 47.798172 -120.377509 279 30018ft 390kts
23-Nov-22 22:16 47.809440 -120.534969 279 27980ft 375kts
23-Nov-22 22:17 47.820066 -120.685854 279 26042ft 360kts
23-Nov-22 22:18 47.830073 -120.830873 279 24552ft 344kts
23-Nov-22 22:19 47.839786 -120.973823 279 24529ft 349kts
23-Nov-22 22:20 47.849368 -121.117709 279 24447ft 350kts
23-Nov-22 22:21 47.858760 -121.261874 278 23464ft 343kts
23-Nov-22 22:22 47.867465 -121.397642 278 21709ft 321kts
23-Nov-22 22:23 47.875719 -121.528963 277 19972ft 316kts
23-Nov-22 22:24 47.883754 -121.659155 276 17435ft 317kts
23-Nov-22 22:25 47.839884 -121.766104 228 15627ft 311kts
23-Nov-22 22:26 47.777206 -121.851791 227 14086ft 301kts
23-Nov-22 22:27 47.715513 -121.935068 227 14001ft 302kts
23-Nov-22 22:28 47.653269 -122.018792 227 13313ft 299kts
23-Nov-22 22:29 47.593294 -122.099148 226 12019ft 279kts
23-Nov-22 22:30 47.520410 -122.116037 178 12005ft 294kts
23-Nov-22 22:31 47.443469 -122.132757 198 10887ft 275kts
23-Nov-22 22:32 47.370249 -122.161234 198 9477ft 269kts
23-Nov-22 22:33 47.299958 -122.192887 198 8104ft 264kts
23-Nov-22 22:34 47.230463 -122.226055 198 6794ft 261kts
23-Nov-22 22:35 47.177588 -122.284446 271 5496ft 265kts
23-Nov-22 22:36 47.233914 -122.318036 13 4257ft 265kts
23-Nov-22 22:37 47.298753 -122.312380 1 3109ft 204kts
23-Nov-22 22:38 47.351369 -122.311922 0 2137ft 171kts
23-Nov-22 22:39 47.396379 -122.311538 1 1179ft 142kts
23-Nov-22 22:40 47.432882 -122.311202 359 480ft 130kts
23-Nov-22 22:41 47.455052 -122.309805 82 425ft 7kts
23-Nov-22 22:42 47.455752 -122.307195 103 432ft 15kts
23-Nov-22 22:43 47.449596 -122.306313 176 406ft 22kts
23-Nov-22 22:44 47.444104 -122.306333 181 388ft 16kts
23-Nov-22 22:45 47.443719 -122.304179 14 387ft 0kts
23-Nov-22 22:46 47.443719 -122.304179 14 387ft 0kts
23-Nov-22 22:47 47.443719 -122.304179 14 387ft 0kts

Navigation Log

Ident Type
Flight plan parsing failed, navigation log unavailable